Time;durP1;ratioP1;P1;durP2;ratioP2;P2;SDS_P1;SDS_P2;PMS_P1;PMS_P2;Temp;Humidity;BMP_temperature;BMP_pressure;BME280_temperature;BME280_humidity;BME280_pressure;Samples;Min_cycle;Max_cycle;Signal;HPM_P1;HPM_P2
2021/08/03 00:00:53;;;;;;;3.55;1.02;;;19.60;77.00;;;;;;5054586;28;20108;-66
2021/08/03 00:03:27;;;;;;;2.70;0.90;;;19.50;77.00;;;;;;5053306;28;20025;-65
2021/08/03 00:05:54;;;;;;;2.45;1.00;;;19.60;77.00;;;;;;5054253;28;20025;-65
2021/08/03 00:08:33;;;;;;;2.83;1.10;;;19.60;77.10;;;;;;5035995;28;20061;-65
2021/08/03 00:11:05;;;;;;;2.70;1.00;;;19.50;77.10;;;;;;5061435;28;20399;-65
2021/08/03 00:13:33;;;;;;;2.35;1.00;;;19.50;77.20;;;;;;5054399;28;20040;-65
2021/08/03 00:16:01;;;;;;;2.83;1.10;;;19.50;77.30;;;;;;5054082;28;20959;-66
2021/08/03 00:18:28;;;;;;;2.88;1.02;;;19.50;77.40;;;;;;5054422;28;20017;-65
2021/08/03 00:20:56;;;;;;;2.45;1.00;;;19.50;77.50;;;;;;5046200;28;20048;-66
2021/08/03 00:23:22;;;;;;;6.97;1.23;;;19.50;77.50;;;;;;5039898;28;20095;-68
2021/08/03 00:25:53;;;;;;;4.45;1.17;;;19.60;77.60;;;;;;5051282;28;20512;-65
2021/08/03 00:28:19;;;;;;;4.47;1.10;;;19.50;77.40;;;;;;5049931;28;20099;-65
2021/08/03 00:30:45;;;;;;;3.15;0.90;;;19.50;77.60;;;;;;5052706;28;20037;-66
2021/08/03 00:33:12;;;;;;;2.97;1.30;;;19.50;77.60;;;;;;5051575;28;20036;-66
2021/08/03 00:35:37;;;;;;;3.55;1.02;;;19.50;77.80;;;;;;5051258;28;20025;-66
2021/08/03 00:38:03;;;;;;;2.10;1.10;;;19.50;77.80;;;;;;5051674;28;20091;-66
2021/08/03 00:40:32;;;;;;;3.53;1.20;;;19.50;77.70;;;;;;5051237;28;20033;-66
2021/08/03 00:42:57;;;;;;;3.03;0.90;;;19.50;77.90;;;;;;5052571;28;20055;-65
2021/08/03 00:45:23;;;;;;;3.50;0.82;;;19.50;78.00;;;;;;5052327;28;20057;-65
2021/08/03 00:47:49;;;;;;;3.55;1.13;;;19.40;77.80;;;;;;5052457;28;20056;-65
2021/08/03 00:50:14;;;;;;;4.18;1.00;;;19.40;77.70;;;;;;5052489;28;20017;-65
2021/08/03 00:52:41;;;;;;;3.40;1.10;;;19.40;77.70;;;;;;5051106;28;20115;-65
2021/08/03 00:55:09;;;;;;;2.72;0.98;;;19.40;77.60;;;;;;5036178;28;20025;-65
2021/08/03 00:57:35;;;;;;;2.17;0.75;;;19.40;77.60;;;;;;5035090;28;20057;-65
2021/08/03 01:00:01;;;;;;;2.78;1.00;;;19.40;77.60;;;;;;5041514;28;20028;-65
2021/08/03 01:02:27;;;;;;;2.75;1.05;;;19.40;77.50;;;;;;5034555;28;20096;-65
2021/08/03 01:04:53;;;;;;;2.60;1.08;;;19.40;77.50;;;;;;5033470;28;20541;-66
2021/08/03 01:07:48;;;;;;;3.40;1.00;;;19.40;77.40;;;;;;5032963;28;20049;-65
2021/08/03 01:10:27;;;;;;;3.38;1.30;;;19.40;77.40;;;;;;5064066;28;20043;-65
2021/08/03 01:13:05;;;;;;;2.72;0.88;;;19.40;77.80;;;;;;5051103;28;20067;-65
2021/08/03 01:15:32;;;;;;;2.45;1.13;;;19.40;77.40;;;;;;5051715;28;20067;-64
2021/08/03 01:18:22;;;;;;;5.35;1.25;;;19.40;77.40;;;;;;5052096;28;20100;-65
2021/08/03 01:20:51;;;;;;;3.63;1.10;;;19.30;77.40;;;;;;5051941;28;20448;-65
2021/08/03 01:23:38;;;;;;;2.97;1.00;;;19.30;77.40;;;;;;5051054;28;20024;-66
2021/08/03 01:26:41;;;;;;;2.38;0.88;;;19.30;77.30;;;;;;5046781;28;20127;-65
2021/08/03 01:29:09;;;;;;;1.65;1.02;;;19.30;77.50;;;;;;5046679;28;20021;-65
2021/08/03 01:31:41;;;;;;;2.08;0.70;;;19.30;77.40;;;;;;5036629;28;20052;-65
2021/08/03 01:34:10;;;;;;;2.00;0.88;;;19.30;77.30;;;;;;5053432;28;20489;-65
2021/08/03 01:36:39;;;;;;;2.03;0.90;;;19.30;77.40;;;;;;5040116;28;20541;-65
2021/08/03 01:39:07;;;;;;;3.75;1.10;;;19.30;77.70;;;;;;5032932;28;20045;-67
2021/08/03 01:41:33;;;;;;;2.17;0.98;;;19.30;77.50;;;;;;5036813;28;20496;-65
2021/08/03 01:44:02;;;;;;;2.05;0.85;;;19.30;77.50;;;;;;5050261;28;20045;-65
2021/08/03 01:46:29;;;;;;;2.33;1.10;;;19.30;77.70;;;;;;5048935;28;20021;-65
2021/08/03 01:48:59;;;;;;;2.03;1.00;;;19.20;77.60;;;;;;5036366;28;20033;-64
2021/08/03 01:51:25;;;;;;;2.90;1.10;;;19.20;77.50;;;;;;5036636;28;20036;-65
2021/08/03 01:53:54;;;;;;;1.83;1.08;;;19.20;77.70;;;;;;5048596;28;20041;-65
2021/08/03 01:56:22;;;;;;;2.60;1.25;;;19.20;77.70;;;;;;5030550;28;20018;-64
2021/08/03 01:58:49;;;;;;;3.63;1.27;;;19.20;77.60;;;;;;5032626;28;20087;-65
2021/08/03 02:01:19;;;;;;;3.30;1.30;;;19.20;77.60;;;;;;5046128;28;20013;-64
2021/08/03 02:03:45;;;;;;;3.13;1.20;;;19.20;77.60;;;;;;5050952;28;20057;-65
2021/08/03 02:06:12;;;;;;;2.75;1.30;;;19.20;77.60;;;;;;5043192;28;20048;-67
2021/08/03 02:08:37;;;;;;;2.30;1.30;;;19.20;77.60;;;;;;5031187;28;20041;-65
2021/08/03 02:11:04;;;;;;;3.95;1.35;;;19.10;77.50;;;;;;5036378;28;20414;-64
2021/08/03 02:13:30;;;;;;;4.13;1.55;;;19.10;77.50;;;;;;5032309;28;20036;-65
2021/08/03 02:15:56;;;;;;;4.63;1.45;;;19.10;77.50;;;;;;5047400;28;20021;-64
2021/08/03 02:18:22;;;;;;;4.50;1.40;;;19.10;77.30;;;;;;5032253;28;20021;-65
2021/08/03 02:20:47;;;;;;;4.05;1.48;;;19.10;77.10;;;;;;5047494;28;20025;-65
2021/08/03 02:23:14;;;;;;;4.40;1.95;;;19.10;77.20;;;;;;5032256;28;20053;-65
2021/08/03 02:25:41;;;;;;;3.83;1.67;;;19.10;77.10;;;;;;5031800;28;20045;-65
2021/08/03 02:28:07;;;;;;;5.35;1.70;;;19.10;77.00;;;;;;5032052;28;20025;-65
2021/08/03 02:30:33;;;;;;;3.42;1.67;;;19.10;76.90;;;;;;5032153;28;20037;-65
2021/08/03 02:33:09;;;;;;;5.07;2.10;;;19.10;77.20;;;;;;5032006;28;20033;-65
2021/08/03 02:36:06;;;;;;;6.20;2.30;;;19.10;77.10;;;;;;5031718;28;20029;-65
2021/08/03 02:38:36;;;;;;;4.85;2.45;;;19.00;77.20;;;;;;5047382;28;20498;-66
2021/08/03 02:41:02;;;;;;;5.80;2.63;;;19.00;77.20;;;;;;5035974;28;20056;-65
2021/08/03 02:43:29;;;;;;;5.03;2.80;;;19.00;77.00;;;;;;5051139;28;20053;-65
2021/08/03 02:45:57;;;;;;;5.47;2.90;;;19.00;77.00;;;;;;5031476;28;20075;-67
2021/08/03 02:48:24;;;;;;;6.63;3.10;;;19.00;77.10;;;;;;5047487;28;20433;-66
2021/08/03 02:50:51;;;;;;;5.78;3.08;;;19.00;77.20;;;;;;5051313;28;20021;-65
2021/08/03 02:53:25;;;;;;;6.82;3.40;;;19.00;77.30;;;;;;5051708;28;20029;-65
2021/08/03 02:55:55;;;;;;;7.68;3.83;;;19.00;77.90;;;;;;5050812;28;20025;-65
2021/08/03 02:58:28;;;;;;;6.93;3.78;;;19.00;77.30;;;;;;5046607;28;20037;-65
2021/08/03 03:00:56;;;;;;;9.27;4.40;;;18.90;77.40;;;;;;5034216;28;20115;-66
2021/08/03 03:03:25;;;;;;;6.20;3.63;;;19.00;77.40;;;;;;5050099;28;20108;-66
2021/08/03 03:05:56;;;;;;;7.75;4.20;;;18.90;77.30;;;;;;5049096;28;20021;-66
2021/08/03 03:08:25;;;;;;;7.20;3.92;;;18.90;77.40;;;;;;5052311;28;20107;-65
2021/08/03 03:10:53;;;;;;;8.30;3.25;;;18.90;77.40;;;;;;5053928;28;20028;-65
2021/08/03 03:13:25;;;;;;;6.63;4.18;;;18.90;77.40;;;;;;5055286;28;20048;-65
2021/08/03 03:15:51;;;;;;;6.10;3.42;;;18.90;77.40;;;;;;5054070;28;20032;-65
2021/08/03 03:18:19;;;;;;;7.72;3.75;;;18.90;77.50;;;;;;5055559;28;20068;-65
2021/08/03 03:20:46;;;;;;;6.57;3.90;;;18.90;77.50;;;;;;5055175;28;20082;-64
2021/08/03 03:23:14;;;;;;;7.82;3.80;;;18.90;77.70;;;;;;5058847;28;20082;-65
2021/08/03 03:25:41;;;;;;;8.05;3.95;;;18.90;77.70;;;;;;5062343;28;20039;-66
2021/08/03 03:28:06;;;;;;;7.53;3.53;;;18.90;77.60;;;;;;5056418;28;20024;-65
2021/08/03 03:30:33;;;;;;;6.47;3.55;;;18.90;77.50;;;;;;5054068;28;20021;-65
2021/08/03 03:33:04;;;;;;;7.05;3.67;;;18.90;77.60;;;;;;5054793;28;20036;-65
2021/08/03 03:35:30;;;;;;;6.88;3.30;;;18.80;77.60;;;;;;5054475;28;20056;-65
2021/08/03 03:37:57;;;;;;;7.13;3.60;;;18.80;77.60;;;;;;5054743;28;20037;-65
2021/08/03 03:40:24;;;;;;;5.88;3.10;;;18.80;77.60;;;;;;5054419;28;20501;-65
2021/08/03 03:42:54;;;;;;;6.30;3.50;;;18.80;77.60;;;;;;5053551;28;20553;-66
2021/08/03 03:45:20;;;;;;;6.53;3.65;;;18.80;77.50;;;;;;5069931;28;20029;-65
2021/08/03 03:48:09;;;;;;;6.97;3.30;;;18.70;77.50;;;;;;5053372;28;20158;-65
2021/08/03 03:50:41;;;;;;;8.97;3.47;;;18.80;77.50;;;;;;5054616;28;20367;-65
2021/08/03 03:53:11;;;;;;;6.43;3.08;;;18.70;77.50;;;;;;5052621;28;20017;-65
2021/08/03 03:55:37;;;;;;;5.68;3.33;;;18.80;77.50;;;;;;5054433;28;20029;-65
2021/08/03 03:58:03;;;;;;;6.32;3.28;;;18.80;77.50;;;;;;5054700;28;20031;-65
2021/08/03 04:00:33;;;;;;;6.75;2.95;;;18.70;77.50;;;;;;5054826;28;20029;-65
2021/08/03 04:03:00;;;;;;;6.78;3.38;;;18.80;77.50;;;;;;5053671;28;20086;-65
2021/08/03 04:05:27;;;;;;;6.38;3.17;;;18.80;77.60;;;;;;5053893;28;20044;-64
2021/08/03 04:07:52;;;;;;;6.45;3.15;;;18.80;77.50;;;;;;5053251;28;20044;-64
2021/08/03 04:10:31;;;;;;;6.25;3.30;;;18.80;77.60;;;;;;5052662;28;20025;-65
2021/08/03 04:12:58;;;;;;;6.32;3.20;;;18.80;77.60;;;;;;5049312;28;20449;-65
2021/08/03 04:15:24;;;;;;;5.55;3.00;;;18.70;77.40;;;;;;5052566;28;20074;-65
2021/08/03 04:17:49;;;;;;;5.93;3.00;;;18.70;77.50;;;;;;5052427;28;20033;-65
2021/08/03 04:20:15;;;;;;;5.43;3.00;;;18.70;77.50;;;;;;5053330;28;20021;-65
2021/08/03 04:22:40;;;;;;;6.32;3.03;;;18.70;77.50;;;;;;5052163;28;20540;-65
2021/08/03 04:25:06;;;;;;;6.75;3.15;;;18.70;78.00;;;;;;5053137;28;20029;-64
2021/08/03 04:27:32;;;;;;;7.07;2.67;;;18.70;77.60;;;;;;5054012;28;20051;-65
2021/08/03 04:29:58;;;;;;;5.93;3.00;;;18.70;77.50;;;;;;5052758;28;20025;-65
2021/08/03 04:32:23;;;;;;;6.13;3.17;;;18.70;77.50;;;;;;5053493;28;21884;-65
2021/08/03 04:34:49;;;;;;;4.72;2.30;;;18.70;77.40;;;;;;5053318;28;20425;-65
2021/08/03 04:37:15;;;;;;;5.40;2.42;;;18.70;77.40;;;;;;5053578;28;20040;-64
2021/08/03 04:39:40;;;;;;;4.55;2.47;;;18.70;77.30;;;;;;5053917;28;20029;-65
2021/08/03 04:42:06;;;;;;;4.05;2.38;;;18.70;77.30;;;;;;5052364;28;20031;-64
2021/08/03 04:44:31;;;;;;;3.47;2.05;;;18.70;77.30;;;;;;5053662;28;20036;-64
2021/08/03 04:46:57;;;;;;;5.22;2.40;;;18.70;77.30;;;;;;5052632;28;20018;-64
2021/08/03 04:49:22;;;;;;;5.13;2.70;;;18.70;77.20;;;;;;5052921;28;20025;-65
2021/08/03 04:51:48;;;;;;;5.88;2.88;;;18.70;77.30;;;;;;5052777;28;20043;-65
2021/08/03 04:54:13;;;;;;;4.85;2.15;;;18.70;77.40;;;;;;5052378;28;20096;-63
2021/08/03 04:56:39;;;;;;;5.70;2.30;;;18.90;77.50;;;;;;5052335;28;20044;-64
2021/08/03 04:59:04;;;;;;;4.90;2.58;;;18.70;77.40;;;;;;5051520;28;20441;-64
2021/08/03 05:01:30;;;;;;;5.82;2.60;;;18.70;77.90;;;;;;5050723;28;20056;-65
2021/08/03 05:03:55;;;;;;;4.72;2.47;;;18.70;77.30;;;;;;5050927;28;20629;-71
2021/08/03 05:06:21;;;;;;;6.45;3.03;;;18.80;77.40;;;;;;5050927;28;20485;-63
2021/08/03 05:08:46;;;;;;;7.72;2.40;;;18.80;77.40;;;;;;5053148;28;20025;-65
2021/08/03 05:11:12;;;;;;;30.90;2.88;;;18.80;77.40;;;;;;5054379;28;20405;-65
2021/08/03 05:13:38;;;;;;;6.38;2.53;;;18.80;77.50;;;;;;5053466;28;20091;-65
2021/08/03 05:16:03;;;;;;;6.10;2.22;;;18.90;77.70;;;;;;5049757;28;20025;-64
2021/08/03 05:18:29;;;;;;;5.75;2.50;;;18.80;77.60;;;;;;5052984;28;20029;-65
2021/08/03 05:20:54;;;;;;;7.80;2.53;;;18.80;77.80;;;;;;5052674;28;20506;-69
2021/08/03 05:23:20;;;;;;;6.40;2.50;;;18.90;78.10;;;;;;5067450;28;20021;-69
2021/08/03 05:25:45;;;;;;;7.53;2.33;;;18.90;78.60;;;;;;5052136;28;20035;-64
2021/08/03 05:28:11;;;;;;;5.25;2.00;;;19.00;78.50;;;;;;5052623;28;20033;-64
2021/08/03 05:30:37;;;;;;;5.95;2.13;;;19.00;78.40;;;;;;5050688;28;20079;-64
2021/08/03 05:33:03;;;;;;;5.40;2.00;;;18.90;78.20;;;;;;5051241;28;20028;-64
2021/08/03 05:35:28;;;;;;;4.65;2.00;;;19.00;78.30;;;;;;5052662;28;20079;-64
2021/08/03 05:37:54;;;;;;;5.65;2.20;;;19.00;78.00;;;;;;5052891;28;20387;-65
2021/08/03 05:40:20;;;;;;;7.70;2.65;;;19.00;78.20;;;;;;5051870;28;20036;-65
2021/08/03 05:42:46;;;;;;;6.10;2.83;;;19.10;78.00;;;;;;5049647;28;20032;-64
2021/08/03 05:45:12;;;;;;;5.65;3.35;;;19.10;78.00;;;;;;5050362;28;20020;-65
2021/08/03 05:47:37;;;;;;;5.30;2.22;;;19.10;77.70;;;;;;5048945;28;20021;-64
2021/08/03 05:50:06;;;;;;;8.48;3.03;;;19.20;77.50;;;;;;5050208;28;20726;-65
2021/08/03 05:52:32;;;;;;;7.88;3.70;;;19.20;77.50;;;;;;5049308;28;20021;-65
2021/08/03 05:54:58;;;;;;;6.20;3.20;;;19.20;77.40;;;;;;5041676;28;20035;-65
2021/08/03 05:57:24;;;;;;;8.63;4.00;;;19.20;77.30;;;;;;5052010;28;20505;-66
2021/08/03 05:59:49;;;;;;;7.47;3.72;;;19.20;77.20;;;;;;5052045;28;20086;-66
2021/08/03 06:02:15;;;;;;;6.72;3.83;;;19.30;77.30;;;;;;5050429;28;20056;-66
2021/08/03 06:04:40;;;;;;;5.80;2.92;;;19.30;77.40;;;;;;5051733;28;20037;-65
2021/08/03 06:07:09;;;;;;;5.82;3.30;;;19.30;77.50;;;;;;5050768;28;20036;-65
2021/08/03 06:09:36;;;;;;;6.07;2.90;;;19.30;77.50;;;;;;5051467;28;20051;-65
2021/08/03 06:12:03;;;;;;;4.97;2.85;;;19.30;77.60;;;;;;5052109;28;20078;-65
2021/08/03 06:14:36;;;;;;;3.97;2.50;;;19.30;77.50;;;;;;5051795;28;20040;-65
2021/08/03 06:17:11;;;;;;;5.75;2.47;;;19.30;77.50;;;;;;5038874;28;20033;-65
2021/08/03 06:19:50;;;;;;;5.35;2.72;;;19.40;77.60;;;;;;5051865;28;20029;-65
2021/08/03 06:22:17;;;;;;;4.88;2.72;;;19.40;77.60;;;;;;5038770;28;20029;-66
2021/08/03 06:24:44;;;;;;;6.80;2.80;;;19.40;77.70;;;;;;5049499;28;20025;-66
2021/08/03 06:27:14;;;;;;;5.20;2.50;;;19.40;77.70;;;;;;5051626;28;20036;-65
2021/08/03 06:29:40;;;;;;;4.63;2.33;;;19.40;77.80;;;;;;5051788;28;20033;-66
2021/08/03 06:32:08;;;;;;;5.25;2.58;;;19.40;77.80;;;;;;5051424;28;20035;-65
2021/08/03 06:34:36;;;;;;;5.82;2.47;;;19.40;77.80;;;;;;5066441;28;20116;-65
2021/08/03 06:37:02;;;;;;;4.47;2.35;;;19.40;77.80;;;;;;5067213;28;20433;-65
2021/08/03 06:39:27;;;;;;;4.13;2.47;;;19.40;77.80;;;;;;5050995;28;20021;-65
2021/08/03 06:42:01;;;;;;;5.40;2.70;;;19.40;77.80;;;;;;5050066;28;20032;-65
2021/08/03 06:44:43;;;;;;;4.85;2.67;;;19.40;77.80;;;;;;5051493;28;20516;-64
2021/08/03 06:47:10;;;;;;;4.70;2.80;;;19.40;77.80;;;;;;5049860;28;20036;-64
2021/08/03 06:49:43;;;;;;;4.55;2.40;;;19.40;77.70;;;;;;5051124;28;20029;-65
2021/08/03 06:52:10;;;;;;;5.00;2.53;;;19.40;77.80;;;;;;5050954;28;20078;-65
2021/08/03 06:54:38;;;;;;;4.53;2.60;;;19.40;77.80;;;;;;5049161;28;20021;-65
2021/08/03 06:57:14;;;;;;;6.10;2.80;;;19.40;77.80;;;;;;5051366;28;20025;-65
2021/08/03 06:59:52;;;;;;;5.05;2.75;;;19.50;77.80;;;;;;5050169;28;20032;-65
2021/08/03 07:02:35;;;;;;;5.32;2.60;;;19.50;77.80;;;;;;5035465;28;20402;-65
2021/08/03 07:05:09;;;;;;;4.45;2.55;;;19.50;77.80;;;;;;5046911;28;20497;-65
2021/08/03 07:07:35;;;;;;;5.68;2.90;;;19.50;77.90;;;;;;5049870;28;20031;-65
2021/08/03 07:10:06;;;;;;;5.07;2.78;;;19.50;78.00;;;;;;5049547;28;20113;-65
2021/08/03 07:12:31;;;;;;;5.47;2.97;;;19.50;77.90;;;;;;5050154;28;20134;-65
2021/08/03 07:14:57;;;;;;;4.60;2.67;;;19.50;77.80;;;;;;5050648;28;20521;-65
2021/08/03 07:17:25;;;;;;;5.95;2.90;;;19.60;77.80;;;;;;5050167;28;20036;-65
2021/08/03 07:19:51;;;;;;;6.93;3.10;;;19.50;77.70;;;;;;5049910;28;20025;-65
2021/08/03 07:22:18;;;;;;;4.82;2.85;;;19.50;77.90;;;;;;5051319;28;20029;-65
2021/08/03 07:24:47;;;;;;;5.97;2.63;;;19.60;77.80;;;;;;5048589;28;20021;-65
2021/08/03 07:27:14;;;;;;;5.00;2.80;;;19.60;78.00;;;;;;5049480;28;20036;-65
2021/08/03 07:29:40;;;;;;;4.60;2.47;;;19.60;77.70;;;;;;5051219;28;20037;-64
2021/08/03 07:32:10;;;;;;;5.13;2.70;;;19.60;77.40;;;;;;5049167;28;20013;-65
2021/08/03 07:34:37;;;;;;;4.57;2.50;;;19.60;77.20;;;;;;5048990;28;20029;-65
2021/08/03 07:37:04;;;;;;;5.93;2.95;;;19.60;77.20;;;;;;5049789;28;20059;-65
2021/08/03 07:39:30;;;;;;;7.32;3.45;;;19.60;77.20;;;;;;5049311;28;20040;-65
2021/08/03 07:41:55;;;;;;;6.07;3.13;;;19.60;77.20;;;;;;5049656;28;20021;-64
2021/08/03 07:44:21;;;;;;;6.13;3.40;;;19.60;77.30;;;;;;5050411;28;20033;-65
2021/08/03 07:46:47;;;;;;;6.22;3.40;;;19.60;77.30;;;;;;5050534;28;20505;-65
2021/08/03 07:49:12;;;;;;;5.22;3.15;;;19.60;77.20;;;;;;5050918;28;20395;-65
2021/08/03 07:51:38;;;;;;;6.03;3.22;;;19.70;77.20;;;;;;5050240;28;20025;-65
2021/08/03 07:54:03;;;;;;;5.32;3.63;;;19.70;77.10;;;;;;5051173;28;20021;-64
2021/08/03 07:56:29;;;;;;;5.43;3.10;;;19.80;76.90;;;;;;5052462;28;20029;-65
2021/08/03 07:58:54;;;;;;;5.45;3.13;;;19.80;76.90;;;;;;5054742;28;20112;-65
2021/08/03 08:01:20;;;;;;;6.35;3.33;;;19.80;76.60;;;;;;5054180;28;20028;-65
2021/08/03 08:03:46;;;;;;;7.35;3.40;;;19.90;76.30;;;;;;5053401;28;20028;-66
2021/08/03 08:06:13;;;;;;;5.70;3.28;;;19.90;76.00;;;;;;5053550;28;20025;-65
2021/08/03 08:08:38;;;;;;;6.05;3.40;;;19.90;75.90;;;;;;5053534;28;20417;-65
2021/08/03 08:11:04;;;;;;;5.35;3.08;;;20.00;75.70;;;;;;5054119;28;20025;-65
2021/08/03 08:13:30;;;;;;;4.95;2.47;;;20.10;75.30;;;;;;5054347;28;20128;-65
2021/08/03 08:15:56;;;;;;;4.97;3.00;;;20.20;74.90;;;;;;5053576;28;20025;-65
2021/08/03 08:18:21;;;;;;;5.22;2.85;;;20.30;74.20;;;;;;5052532;28;20116;-65
2021/08/03 08:20:47;;;;;;;6.15;3.38;;;20.40;73.90;;;;;;5045458;28;20025;-65
2021/08/03 08:23:15;;;;;;;7.05;4.13;;;20.40;74.00;;;;;;5037859;28;20388;-65
2021/08/03 08:25:41;;;;;;;5.75;3.22;;;20.50;74.00;;;;;;5052846;28;20037;-65
2021/08/03 08:28:07;;;;;;;6.65;3.17;;;20.60;73.40;;;;;;5052586;28;20100;-65
2021/08/03 08:30:38;;;;;;;5.97;3.40;;;20.70;73.20;;;;;;5042375;28;20025;-65
2021/08/03 08:33:04;;;;;;;6.15;3.33;;;20.70;73.10;;;;;;5053922;28;20021;-65
2021/08/03 08:35:30;;;;;;;5.45;3.00;;;20.60;73.00;;;;;;5053456;28;20498;-64
2021/08/03 08:37:56;;;;;;;5.40;2.80;;;20.60;72.80;;;;;;5053725;28;20540;-65
2021/08/03 08:40:22;;;;;;;6.50;3.85;;;20.50;72.60;;;;;;5049494;28;20054;-65
2021/08/03 08:42:47;;;;;;;6.57;4.22;;;20.50;73.50;;;;;;5045091;28;20057;-64
2021/08/03 08:45:15;;;;;;;5.82;3.38;;;20.50;73.80;;;;;;5053595;28;20029;-65
2021/08/03 08:47:45;;;;;;;5.95;3.47;;;20.50;73.20;;;;;;5034378;28;20518;-65
2021/08/03 08:50:13;;;;;;;7.82;4.25;;;20.40;73.50;;;;;;5032715;28;20035;-65
2021/08/03 08:52:40;;;;;;;7.65;4.07;;;20.40;73.80;;;;;;5033631;28;20035;-65
2021/08/03 08:55:07;;;;;;;7.15;3.95;;;20.40;73.80;;;;;;5033699;28;20029;-65
2021/08/03 08:57:34;;;;;;;5.80;3.35;;;20.50;73.90;;;;;;5032695;28;20099;-65
2021/08/03 08:59:59;;;;;;;6.75;3.20;;;20.50;73.20;;;;;;5052450;28;20021;-65
2021/08/03 09:02:39;;;;;;;6.68;3.40;;;20.50;73.10;;;;;;5051949;28;20033;-65
2021/08/03 09:05:06;;;;;;;6.43;3.92;;;20.50;73.10;;;;;;5053209;28;20025;-65
2021/08/03 09:07:31;;;;;;;6.43;4.32;;;20.50;73.50;;;;;;5052302;28;20501;-65
2021/08/03 09:09:57;;;;;;;6.63;3.90;;;20.50;73.40;;;;;;5036476;28;20079;-65
2021/08/03 09:12:33;;;;;;;6.00;3.22;;;20.60;73.40;;;;;;5051662;28;20494;-66
2021/08/03 09:14:59;;;;;;;6.10;3.00;;;20.60;73.00;;;;;;5042516;28;20036;-66
2021/08/03 09:17:27;;;;;;;5.47;3.03;;;20.70;72.50;;;;;;5052042;28;20534;-66
2021/08/03 09:19:52;;;;;;;5.45;3.15;;;20.70;72.30;;;;;;5053047;28;20119;-65
2021/08/03 09:22:28;;;;;;;6.10;3.20;;;20.70;71.90;;;;;;5051577;28;20508;-66
2021/08/03 09:25:12;;;;;;;6.00;3.50;;;20.80;71.80;;;;;;5052903;28;20033;-66
2021/08/03 09:27:43;;;;;;;6.03;3.30;;;20.70;71.70;;;;;;5051768;28;20132;-65
2021/08/03 09:30:33;;;;;;;6.10;3.50;;;20.70;71.80;;;;;;5051852;28;20028;-66
2021/08/03 09:32:59;;;;;;;8.18;3.67;;;20.70;72.10;;;;;;5052991;28;20028;-65
2021/08/03 09:35:26;;;;;;;6.07;3.30;;;20.70;72.30;;;;;;5051428;28;20029;-65
2021/08/03 09:37:53;;;;;;;6.15;3.00;;;20.70;72.00;;;;;;5053019;28;20482;-64
2021/08/03 09:40:24;;;;;;;5.32;3.22;;;20.70;71.80;;;;;;5064467;28;20032;-65
2021/08/03 09:43:07;;;;;;;5.53;3.38;;;20.70;71.80;;;;;;5031740;28;20029;-65
2021/08/03 09:45:55;;;;;;;5.80;3.10;;;20.80;72.10;;;;;;5032505;28;20076;-65
2021/08/03 09:48:23;;;;;;;5.85;2.92;;;20.70;72.00;;;;;;5031586;28;20021;-65
2021/08/03 09:50:59;;;;;;;5.00;2.90;;;20.80;71.50;;;;;;5032581;28;20025;-65
2021/08/03 09:53:34;;;;;;;5.13;2.78;;;20.80;71.30;;;;;;5032808;28;20049;-65
2021/08/03 09:56:00;;;;;;;4.85;2.85;;;20.80;71.10;;;;;;5032476;28;20029;-65
2021/08/03 09:58:27;;;;;;;4.90;2.83;;;20.80;70.90;;;;;;5031374;28;20394;-65
2021/08/03 10:00:53;;;;;;;5.20;2.83;;;20.80;70.90;;;;;;5033039;28;20021;-65
2021/08/03 10:03:19;;;;;;;5.45;2.55;;;20.90;70.80;;;;;;5032592;28;20025;-66
2021/08/03 10:05:45;;;;;;;5.10;2.80;;;20.90;70.50;;;;;;5035088;28;20029;-63
2021/08/03 10:08:11;;;;;;;4.70;2.63;;;20.90;70.60;;;;;;5051035;28;20116;-65
2021/08/03 10:10:37;;;;;;;4.80;2.70;;;20.90;70.80;;;;;;5041527;28;20032;-65
2021/08/03 10:13:04;;;;;;;4.18;2.45;;;20.90;70.60;;;;;;5031038;28;20025;-65
2021/08/03 10:15:29;;;;;;;5.95;2.65;;;20.90;70.70;;;;;;5034071;28;20033;-65
2021/08/03 10:17:55;;;;;;;4.32;2.45;;;20.90;70.70;;;;;;5047101;28;20033;-65
2021/08/03 10:20:21;;;;;;;4.95;2.97;;;20.80;70.60;;;;;;5050867;28;20032;-66
2021/08/03 10:23:00;;;;;;;5.30;2.60;;;20.80;70.80;;;;;;5038266;28;20033;-66
2021/08/03 10:25:36;;;;;;;4.95;2.70;;;20.80;70.70;;;;;;5030607;28;20109;-65
2021/08/03 10:28:25;;;;;;;4.90;2.70;;;20.80;70.70;;;;;;5032132;28;20033;-65
2021/08/03 10:30:51;;;;;;;5.78;2.85;;;20.80;70.90;;;;;;5034258;28;20018;-65
2021/08/03 10:33:43;;;;;;;6.55;3.50;;;20.80;70.90;;;;;;5034746;28;20104;-65
2021/08/03 10:36:29;;;;;;;5.72;2.95;;;20.80;71.30;;;;;;5031412;28;20044;-65
2021/08/03 10:39:09;;;;;;;6.50;3.10;;;20.80;70.80;;;;;;5031851;28;20034;-65
2021/08/03 10:41:59;;;;;;;6.63;3.10;;;20.80;70.70;;;;;;5030643;28;20122;-66
2021/08/03 10:44:47;;;;;;;6.00;3.38;;;20.70;70.50;;;;;;5036750;28;20032;-65
2021/08/03 10:47:30;;;;;;;8.90;3.70;;;20.80;70.50;;;;;;5040213;28;20017;-65
2021/08/03 10:49:57;;;;;;;6.97;3.00;;;20.70;70.50;;;;;;5050702;28;20108;-65
2021/08/03 10:52:54;;;;;;;7.47;3.33;;;20.80;70.00;;;;;;5050381;28;20397;-65
2021/08/03 10:55:42;;;;;;;6.78;3.25;;;20.70;70.00;;;;;;5043433;28;20044;-65
2021/08/03 10:58:11;;;;;;;7.38;3.42;;;20.70;69.70;;;;;;5042620;28;20135;-65
2021/08/03 11:00:42;;;;;;;7.57;3.88;;;20.70;69.80;;;;;;5040994;28;20029;-65
2021/08/03 11:03:27;;;;;;;8.25;3.78;;;20.80;69.70;;;;;;5048413;28;20102;-65
2021/08/03 11:05:53;;;;;;;7.57;3.83;;;20.80;69.60;;;;;;5048311;28;20033;-62
2021/08/03 11:08:29;;;;;;;7.55;3.40;;;20.80;69.50;;;;;;5049732;28;20048;-65
2021/08/03 11:11:24;;;;;;;8.82;3.85;;;20.80;69.60;;;;;;5050344;28;20029;-65
2021/08/03 11:13:54;;;;;;;6.35;3.28;;;20.80;69.80;;;;;;5032996;28;20060;-66
2021/08/03 11:16:19;;;;;;;6.03;3.35;;;20.90;69.80;;;;;;5065255;28;20401;-66
2021/08/03 11:18:53;;;;;;;6.20;3.33;;;20.90;69.60;;;;;;5051846;28;20033;-65
2021/08/03 11:21:24;;;;;;;7.03;3.45;;;20.90;69.70;;;;;;5049675;28;20029;-66
2021/08/03 11:24:03;;;;;;;6.97;3.45;;;20.90;69.70;;;;;;5048807;28;20131;-67
2021/08/03 11:26:33;;;;;;;7.07;3.95;;;20.80;69.80;;;;;;5043848;28;20028;-66
2021/08/03 11:29:10;;;;;;;7.25;3.80;;;20.80;69.70;;;;;;5049735;28;20025;-67
2021/08/03 11:31:43;;;;;;;7.72;3.80;;;20.80;69.50;;;;;;5053436;28;20042;-67
2021/08/03 11:34:10;;;;;;;7.97;3.75;;;20.80;69.30;;;;;;5054580;28;20024;-66
2021/08/03 11:36:37;;;;;;;7.82;3.78;;;20.80;69.00;;;;;;5053256;28;20029;-66
2021/08/03 11:39:26;;;;;;;5.80;3.47;;;20.80;68.90;;;;;;5054967;28;20032;-66
2021/08/03 11:41:52;;;;;;;6.40;3.88;;;20.70;68.80;;;;;;5053895;28;20032;-66
2021/08/03 11:44:19;;;;;;;8.60;3.58;;;20.70;68.70;;;;;;5053122;28;20024;-67
2021/08/03 11:46:52;;;;;;;6.30;3.53;;;20.80;68.90;;;;;;5053763;28;20090;-66
2021/08/03 11:49:17;;;;;;;6.32;3.40;;;20.70;68.70;;;;;;5055003;28;20025;-66
2021/08/03 11:51:47;;;;;;;6.60;3.58;;;20.70;68.70;;;;;;5047060;28;20052;-66
2021/08/03 11:54:15;;;;;;;6.22;3.15;;;20.70;68.60;;;;;;5050225;28;20104;-67
2021/08/03 11:56:41;;;;;;;5.70;3.20;;;20.70;68.50;;;;;;5033563;28;20026;-66
2021/08/03 11:59:08;;;;;;;8.55;3.60;;;20.70;68.40;;;;;;5034865;28;20043;-67
2021/08/03 12:01:52;;;;;;;6.38;3.10;;;20.70;68.40;;;;;;5033528;28;20021;-66
2021/08/03 12:04:23;;;;;;;6.35;3.47;;;20.70;68.30;;;;;;5034555;28;20045;-66
2021/08/03 12:06:50;;;;;;;6.85;3.15;;;20.70;68.30;;;;;;5034837;28;20051;-66
2021/08/03 12:09:20;;;;;;;6.93;3.00;;;20.70;68.40;;;;;;5050007;28;20052;-66
2021/08/03 12:11:57;;;;;;;5.60;2.90;;;20.70;68.40;;;;;;5034604;28;20025;-66
2021/08/03 12:14:32;;;;;;;5.25;2.50;;;20.70;68.60;;;;;;5032383;28;20045;-65
2021/08/03 12:16:57;;;;;;;7.63;2.60;;;20.70;68.60;;;;;;5033646;28;20387;-66
2021/08/03 12:19:27;;;;;;;5.85;2.40;;;20.70;68.60;;;;;;5034613;28;20032;-68
2021/08/03 12:21:53;;;;;;;4.43;2.28;;;20.70;68.80;;;;;;5034443;28;20021;-67
2021/08/03 12:24:19;;;;;;;4.35;2.20;;;20.70;68.70;;;;;;5051781;28;20109;-67
2021/08/03 12:26:45;;;;;;;5.28;2.50;;;20.60;69.00;;;;;;5052985;28;20017;-67
2021/08/03 12:29:11;;;;;;;5.88;2.42;;;20.60;69.10;;;;;;5052680;28;20029;-68
2021/08/03 12:31:43;;;;;;;7.75;2.20;;;20.60;69.30;;;;;;5053282;28;20032;-66
2021/08/03 12:34:12;;;;;;;4.30;2.20;;;20.60;69.60;;;;;;5051904;28;20113;-69
2021/08/03 12:36:45;;;;;;;4.90;2.33;;;20.60;69.80;;;;;;5035263;28;20021;-69
2021/08/03 12:39:20;;;;;;;4.03;2.00;;;20.70;69.90;;;;;;5048651;28;20030;-69
2021/08/03 12:42:33;;;;;;;4.50;2.30;;;20.70;70.00;;;;;;5051368;28;20032;-69
2021/08/03 12:45:12;;;;;;;7.13;2.30;;;20.70;70.00;;;;;;5050797;28;20108;-71
2021/08/03 12:47:57;;;;;;;6.50;2.45;;;20.70;70.30;;;;;;5054032;28;20521;-70
2021/08/03 12:50:24;;;;;;;4.40;2.05;;;20.70;70.20;;;;;;5053103;28;20035;-70
2021/08/03 12:52:53;;;;;;;5.55;1.95;;;20.70;70.20;;;;;;5052593;28;20024;-69
2021/08/03 12:55:27;;;;;;;7.65;2.05;;;20.70;70.00;;;;;;5052269;28;20028;-69
2021/08/03 12:57:54;;;;;;;4.28;1.90;;;20.70;70.10;;;;;;5052350;28;20113;-66
2021/08/03 13:00:26;;;;;;;4.57;2.20;;;20.70;70.30;;;;;;5052480;28;20021;-67